sensor_id;sensor_type;location;lat;lon;timestamp;pressure;altitude;pressure_sealevel;temperature;humidity
49979;BME280;35869;50.990;6.962;2023-02-28T00:02:29;102670.88;;;0.57;78.26
49979;BME280;35869;50.990;6.962;2023-02-28T00:07:30;102673.31;;;0.52;78.79
49979;BME280;35869;50.990;6.962;2023-02-28T00:12:31;102665.59;;;0.50;79.04
49979;BME280;35869;50.990;6.962;2023-02-28T00:17:31;102665.53;;;0.47;79.30
49979;BME280;35869;50.990;6.962;2023-02-28T00:22:31;102678.88;;;0.37;80.11
49979;BME280;35869;50.990;6.962;2023-02-28T00:27:31;102666.09;;;0.37;78.95
49979;BME280;35869;50.990;6.962;2023-02-28T00:32:32;102667.63;;;0.32;79.09
49979;BME280;35869;50.990;6.962;2023-02-28T00:37:32;102673.16;;;0.17;77.75
49979;BME280;35869;50.990;6.962;2023-02-28T00:42:33;102675.13;;;0.26;79.26
49979;BME280;35869;50.990;6.962;2023-02-28T00:47:34;102678.41;;;0.22;79.18
49979;BME280;35869;50.990;6.962;2023-02-28T00:52:34;102666.50;;;0.22;79.46
49979;BME280;35869;50.990;6.962;2023-02-28T00:57:34;102664.44;;;0.11;77.96
49979;BME280;35869;50.990;6.962;2023-02-28T01:02:34;102681.50;;;0.12;78.65
49979;BME280;35869;50.990;6.962;2023-02-28T01:07:35;102677.78;;;0.01;79.09
49979;BME280;35869;50.990;6.962;2023-02-28T01:12:35;102678.59;;;-0.01;78.81
49979;BME280;35869;50.990;6.962;2023-02-28T01:17:35;102675.31;;;0.04;78.96
49979;BME280;35869;50.990;6.962;2023-02-28T01:22:36;102680.03;;;-0.09;78.07
49979;BME280;35869;50.990;6.962;2023-02-28T01:27:36;102677.53;;;-0.07;78.57
49979;BME280;35869;50.990;6.962;2023-02-28T01:32:36;102680.03;;;-0.09;78.98
49979;BME280;35869;50.990;6.962;2023-02-28T01:37:36;102666.94;;;-0.19;78.69
49979;BME280;35869;50.990;6.962;2023-02-28T01:42:37;102674.59;;;-0.19;78.41
49979;BME280;35869;50.990;6.962;2023-02-28T01:47:42;102671.97;;;-0.22;77.92
49979;BME280;35869;50.990;6.962;2023-02-28T01:52:43;102657.31;;;-0.28;77.77
49979;BME280;35869;50.990;6.962;2023-02-28T01:57:51;102652.94;;;-0.31;78.34
49979;BME280;35869;50.990;6.962;2023-02-28T02:02:56;102656.56;;;-0.24;78.04
49979;BME280;35869;50.990;6.962;2023-02-28T02:08:02;102654.59;;;-0.33;78.15
49979;BME280;35869;50.990;6.962;2023-02-28T02:13:21;102651.22;;;-0.32;78.87
49979;BME280;35869;50.990;6.962;2023-02-28T02:18:48;102654.56;;;-0.34;78.66
49979;BME280;35869;50.990;6.962;2023-02-28T02:35:00;102633.34;;;-0.59;76.88
49979;BME280;35869;50.990;6.962;2023-02-28T02:40:10;102637.97;;;-0.47;77.70
49979;BME280;35869;50.990;6.962;2023-02-28T02:45:26;102633.81;;;-0.43;77.95
49979;BME280;35869;50.990;6.962;2023-02-28T02:50:33;102632.81;;;-0.48;78.70
49979;BME280;35869;50.990;6.962;2023-02-28T02:55:39;102635.28;;;-0.51;78.03
49979;BME280;35869;50.990;6.962;2023-02-28T03:00:43;102639.41;;;-0.55;78.81
49979;BME280;35869;50.990;6.962;2023-02-28T03:05:48;102635.94;;;-0.57;78.99
49979;BME280;35869;50.990;6.962;2023-02-28T03:10:51;102633.34;;;-0.59;79.32
49979;BME280;35869;50.990;6.962;2023-02-28T03:16:01;102629.84;;;-0.61;78.82
49979;BME280;35869;50.990;6.962;2023-02-28T03:26:21;102627.81;;;-0.71;78.48
49979;BME280;35869;50.990;6.962;2023-02-28T03:31:30;102625.13;;;-0.75;78.38
49979;BME280;35869;50.990;6.962;2023-02-28T03:36:38;102622.31;;;-0.83;78.98
49979;BME280;35869;50.990;6.962;2023-02-28T03:41:48;102626.56;;;-0.84;78.63
49979;BME280;35869;50.990;6.962;2023-02-28T03:47:02;102632.13;;;-0.95;77.44
49979;BME280;35869;50.990;6.962;2023-02-28T03:52:06;102634.88;;;-0.89;76.72
49979;BME280;35869;50.990;6.962;2023-02-28T04:02:41;102629.56;;;-0.95;77.18
49979;BME280;35869;50.990;6.962;2023-02-28T04:07:41;102627.84;;;-0.96;76.96
49979;BME280;35869;50.990;6.962;2023-02-28T04:12:41;102636.47;;;-0.93;77.34
49979;BME280;35869;50.990;6.962;2023-02-28T04:17:42;102639.59;;;-1.00;77.76
49979;BME280;35869;50.990;6.962;2023-02-28T04:22:42;102640.50;;;-0.99;77.67
49979;BME280;35869;50.990;6.962;2023-02-28T04:27:42;102638.81;;;-0.99;78.74
49979;BME280;35869;50.990;6.962;2023-02-28T04:32:42;102637.88;;;-1.01;79.05
49979;BME280;35869;50.990;6.962;2023-02-28T04:37:42;102642.84;;;-1.05;78.45
49979;BME280;35869;50.990;6.962;2023-02-28T04:42:42;102648.75;;;-1.07;78.87
49979;BME280;35869;50.990;6.962;2023-02-28T04:47:43;102648.53;;;-1.13;78.28
49979;BME280;35869;50.990;6.962;2023-02-28T04:52:43;102653.53;;;-1.16;78.54
49979;BME280;35869;50.990;6.962;2023-02-28T04:57:43;102648.28;;;-1.20;78.60
49979;BME280;35869;50.990;6.962;2023-02-28T05:02:43;102655.94;;;-1.20;78.60
49979;BME280;35869;50.990;6.962;2023-02-28T05:07:44;102658.59;;;-1.17;78.34
49979;BME280;35869;50.990;6.962;2023-02-28T05:12:44;102659.94;;;-1.27;78.56
49979;BME280;35869;50.990;6.962;2023-02-28T05:17:45;102665.16;;;-1.24;78.14
49979;BME280;35869;50.990;6.962;2023-02-28T05:22:45;102663.41;;;-1.25;78.16
49979;BME280;35869;50.990;6.962;2023-02-28T05:27:45;102656.50;;;-1.29;78.07
49979;BME280;35869;50.990;6.962;2023-02-28T05:32:49;102656.38;;;-1.32;78.29
49979;BME280;35869;50.990;6.962;2023-02-28T05:37:50;102669.00;;;-1.35;77.78
49979;BME280;35869;50.990;6.962;2023-02-28T05:42:50;102662.94;;;-1.39;78.22
49979;BME280;35869;50.990;6.962;2023-02-28T05:47:53;102663.41;;;-1.49;77.23
49979;BME280;35869;50.990;6.962;2023-02-28T05:52:53;102672.09;;;-1.44;76.81
49979;BME280;35869;50.990;6.962;2023-02-28T05:57:54;102679.91;;;-1.39;77.02
49979;BME280;35869;50.990;6.962;2023-02-28T06:02:54;102668.00;;;-1.40;76.80
49979;BME280;35869;50.990;6.962;2023-02-28T06:07:54;102678.06;;;-1.43;76.65
49979;BME280;35869;50.990;6.962;2023-02-28T06:12:54;102671.44;;;-1.38;76.12
49979;BME280;35869;50.990;6.962;2023-02-28T06:17:55;102672.22;;;-1.41;75.67
49979;BME280;35869;50.990;6.962;2023-02-28T06:22:57;102678.94;;;-1.43;75.23
49979;BME280;35869;50.990;6.962;2023-02-28T06:27:57;102684.84;;;-1.44;76.41
49979;BME280;35869;50.990;6.962;2023-02-28T06:32:57;102688.38;;;-1.40;75.98
49979;BME280;35869;50.990;6.962;2023-02-28T06:37:57;102693.13;;;-1.49;75.99
49979;BME280;35869;50.990;6.962;2023-02-28T06:42:58;102698.38;;;-1.46;75.45
49979;BME280;35869;50.990;6.962;2023-02-28T06:47:58;102706.88;;;-1.46;75.45
49979;BME280;35869;50.990;6.962;2023-02-28T06:52:58;102713.66;;;-1.46;74.56
49979;BME280;35869;50.990;6.962;2023-02-28T06:57:58;102719.41;;;-1.52;74.17
49979;BME280;35869;50.990;6.962;2023-02-28T07:02:59;102728.03;;;-1.48;74.14
49979;BME280;35869;50.990;6.962;2023-02-28T07:07:59;102735.81;;;-1.45;75.89
49979;BME280;35869;50.990;6.962;2023-02-28T07:13:00;102726.66;;;-1.40;74.31
49979;BME280;35869;50.990;6.962;2023-02-28T07:18:00;102734.16;;;-1.43;74.37
49979;BME280;35869;50.990;6.962;2023-02-28T07:23:00;102734.16;;;-1.43;74.33
49979;BME280;35869;50.990;6.962;2023-02-28T07:28:00;102732.66;;;-1.38;74.06
49979;BME280;35869;50.990;6.962;2023-02-28T07:33:00;102736.25;;;-1.33;74.08
49979;BME280;35869;50.990;6.962;2023-02-28T07:38:01;102730.38;;;-1.30;73.46
49979;BME280;35869;50.990;6.962;2023-02-28T07:43:02;102732.28;;;-1.25;71.91
49979;BME280;35869;50.990;6.962;2023-02-28T07:48:03;102736.78;;;-1.18;72.47
49979;BME280;35869;50.990;6.962;2023-02-28T07:53:03;102741.25;;;-1.12;73.97
49979;BME280;35869;50.990;6.962;2023-02-28T07:58:03;102744.16;;;-1.03;73.12
49979;BME280;35869;50.990;6.962;2023-02-28T08:03:03;102734.41;;;-0.89;72.12
49979;BME280;35869;50.990;6.962;2023-02-28T08:08:04;102741.53;;;-0.81;71.32
49979;BME280;35869;50.990;6.962;2023-02-28T08:13:04;102741.06;;;-0.70;70.74
49979;BME280;35869;50.990;6.962;2023-02-28T08:18:05;102745.81;;;-0.56;69.99
49979;BME280;35869;50.990;6.962;2023-02-28T08:23:05;102743.66;;;-0.43;69.60
49979;BME280;35869;50.990;6.962;2023-02-28T08:28:05;102756.75;;;-0.34;69.06
49979;BME280;35869;50.990;6.962;2023-02-28T08:33:05;102750.31;;;-0.23;68.24
49979;BME280;35869;50.990;6.962;2023-02-28T08:38:06;102747.41;;;-0.07;66.25
49979;BME280;35869;50.990;6.962;2023-02-28T08:43:06;102744.25;;;0.01;67.15
49979;BME280;35869;50.990;6.962;2023-02-28T08:48:06;102742.75;;;0.07;63.01
49979;BME280;35869;50.990;6.962;2023-02-28T08:53:07;102748.91;;;0.14;65.61
49979;BME280;35869;50.990;6.962;2023-02-28T08:58:07;102738.59;;;0.39;61.14
49979;BME280;35869;50.990;6.962;2023-02-28T09:03:07;102745.56;;;0.43;61.85
49979;BME280;35869;50.990;6.962;2023-02-28T09:08:07;102738.59;;;0.39;61.69
49979;BME280;35869;50.990;6.962;2023-02-28T09:13:07;102740.69;;;0.52;60.23
49979;BME280;35869;50.990;6.962;2023-02-28T09:18:08;102734.00;;;0.56;58.52
49979;BME280;35869;50.990;6.962;2023-02-28T09:23:09;102733.50;;;0.69;58.25
49979;BME280;35869;50.990;6.962;2023-02-28T09:28:10;102736.72;;;0.92;59.12
49979;BME280;35869;50.990;6.962;2023-02-28T09:33:10;102733.28;;;0.92;56.89
49979;BME280;35869;50.990;6.962;2023-02-28T09:38:10;102727.50;;;0.99;57.70
49979;BME280;35869;50.990;6.962;2023-02-28T09:43:12;102725.53;;;1.20;56.46
49979;BME280;35869;50.990;6.962;2023-02-28T09:48:17;102723.94;;;1.24;55.98
49979;BME280;35869;50.990;6.962;2023-02-28T09:53:26;102722.69;;;1.41;56.09
49979;BME280;35869;50.990;6.962;2023-02-28T09:58:46;102728.88;;;1.51;54.84
49979;BME280;35869;50.990;6.962;2023-02-28T10:03:54;102726.84;;;1.71;55.67
49979;BME280;35869;50.990;6.962;2023-02-28T10:09:08;102720.88;;;1.72;54.86
49979;BME280;35869;50.990;6.962;2023-02-28T10:14:16;102710.88;;;1.82;56.61
49979;BME280;35869;50.990;6.962;2023-02-28T10:19:38;102712.78;;;1.91;55.44
49979;BME280;35869;50.990;6.962;2023-02-28T10:24:46;102715.03;;;2.13;54.92
49979;BME280;35869;50.990;6.962;2023-02-28T10:29:55;102706.09;;;2.35;54.47
49979;BME280;35869;50.990;6.962;2023-02-28T10:35:16;102707.81;;;2.35;60.33
49979;BME280;35869;50.990;6.962;2023-02-28T10:45:17;102698.19;;;2.67;54.78
49979;BME280;35869;50.990;6.962;2023-02-28T10:50:31;102696.81;;;2.84;55.64
49979;BME280;35869;50.990;6.962;2023-02-28T10:55:32;102692.50;;;2.82;54.46
49979;BME280;35869;50.990;6.962;2023-02-28T11:00:34;102686.75;;;2.95;53.90
49979;BME280;35869;50.990;6.962;2023-02-28T11:05:36;102681.88;;;3.10;52.09
49979;BME280;35869;50.990;6.962;2023-02-28T11:10:36;102678.75;;;3.27;53.74
49979;BME280;35869;50.990;6.962;2023-02-28T11:15:37;102668.22;;;3.11;54.67
49979;BME280;35869;50.990;6.962;2023-02-28T11:20:38;102661.25;;;3.57;54.00
49979;BME280;35869;50.990;6.962;2023-02-28T11:25:39;102665.78;;;3.70;53.36
49979;BME280;35869;50.990;6.962;2023-02-28T11:30:41;102667.41;;;3.64;53.91
49979;BME280;35869;50.990;6.962;2023-02-28T11:35:41;102664.16;;;3.76;53.28
49979;BME280;35869;50.990;6.962;2023-02-28T11:51:10;102651.97;;;4.24;53.71
49979;BME280;35869;50.990;6.962;2023-02-28T12:07:09;102657.88;;;4.17;53.63
49979;BME280;35869;50.990;6.962;2023-02-28T12:17:42;102654.22;;;4.00;52.79
49979;BME280;35869;50.990;6.962;2023-02-28T12:28:00;102639.59;;;4.67;54.90
49979;BME280;35869;50.990;6.962;2023-02-28T12:33:06;102639.66;;;4.73;51.47
49979;BME280;35869;50.990;6.962;2023-02-28T12:43:16;102625.97;;;4.80;53.13
49979;BME280;35869;50.990;6.962;2023-02-28T12:48:42;102615.78;;;4.90;50.66
49979;BME280;35869;50.990;6.962;2023-02-28T12:59:10;102590.22;;;5.14;52.56
49979;BME280;35869;50.990;6.962;2023-02-28T13:09:35;102594.94;;;4.65;49.89
49979;BME280;35869;50.990;6.962;2023-02-28T13:14:37;102585.88;;;5.07;50.10
49979;BME280;35869;50.990;6.962;2023-02-28T13:19:42;102580.06;;;5.32;50.29
49979;BME280;35869;50.990;6.962;2023-02-28T13:24:52;102571.44;;;5.29;50.34
49979;BME280;35869;50.990;6.962;2023-02-28T13:29:53;102566.41;;;5.50;50.64
49979;BME280;35869;50.990;6.962;2023-02-28T13:39:55;102563.84;;;5.50;51.17
49979;BME280;35869;50.990;6.962;2023-02-28T13:55:25;102545.09;;;5.79;51.34
49979;BME280;35869;50.990;6.962;2023-02-28T14:00:52;102549.50;;;5.94;51.59
49979;BME280;35869;50.990;6.962;2023-02-28T14:06:25;102549.38;;;5.78;50.15
49979;BME280;35869;50.990;6.962;2023-02-28T14:11:38;102535.75;;;5.93;51.26
49979;BME280;35869;50.990;6.962;2023-02-28T14:16:41;102532.34;;;6.08;50.66
49979;BME280;35869;50.990;6.962;2023-02-28T14:27:35;102523.69;;;5.97;49.81
49979;BME280;35869;50.990;6.962;2023-02-28T14:33:10;102523.72;;;6.00;50.08
49979;BME280;35869;50.990;6.962;2023-02-28T14:38:27;102523.72;;;6.09;50.33
49979;BME280;35869;50.990;6.962;2023-02-28T14:43:29;102523.78;;;6.18;51.02
49979;BME280;35869;50.990;6.962;2023-02-28T14:48:30;102522.94;;;6.24;50.51
49979;BME280;35869;50.990;6.962;2023-02-28T14:53:35;102522.94;;;6.24;51.21
49979;BME280;35869;50.990;6.962;2023-02-28T14:58:36;102515.19;;;6.31;50.58
49979;BME280;35869;50.990;6.962;2023-02-28T15:03:38;102511.72;;;6.17;51.48
49979;BME280;35869;50.990;6.962;2023-02-28T15:08:39;102510.84;;;6.04;49.69
49979;BME280;35869;50.990;6.962;2023-02-28T15:13:44;102504.00;;;6.35;53.08
49979;BME280;35869;50.990;6.962;2023-02-28T15:18:54;102503.97;;;6.11;49.29
49979;BME280;35869;50.990;6.962;2023-02-28T15:23:59;102494.50;;;6.14;50.85
49979;BME280;35869;50.990;6.962;2023-02-28T15:29:05;102497.94;;;6.06;50.22
49979;BME280;35869;50.990;6.962;2023-02-28T15:34:12;102500.50;;;6.15;50.32
49979;BME280;35869;50.990;6.962;2023-02-28T15:39:22;102493.63;;;6.11;51.99
49979;BME280;35869;50.990;6.962;2023-02-28T15:44:27;102494.53;;;6.16;50.96
49979;BME280;35869;50.990;6.962;2023-02-28T15:49:30;102501.38;;;6.11;50.37
49979;BME280;35869;50.990;6.962;2023-02-28T15:54:34;102502.94;;;5.75;48.80
49979;BME280;35869;50.990;6.962;2023-02-28T15:59:35;102500.41;;;5.87;49.79
49979;BME280;35869;50.990;6.962;2023-02-28T16:04:36;102499.63;;;6.08;53.64
49979;BME280;35869;50.990;6.962;2023-02-28T16:09:37;102494.38;;;5.88;52.30
49979;BME280;35869;50.990;6.962;2023-02-28T16:14:37;102498.75;;;6.00;53.58
49979;BME280;35869;50.990;6.962;2023-02-28T16:19:37;102510.78;;;5.97;53.97
49979;BME280;35869;50.990;6.962;2023-02-28T16:24:37;102510.66;;;5.74;52.22
49979;BME280;35869;50.990;6.962;2023-02-28T16:29:37;102507.22;;;5.72;54.56
49979;BME280;35869;50.990;6.962;2023-02-28T16:34:38;102514.06;;;5.64;52.62
49979;BME280;35869;50.990;6.962;2023-02-28T16:39:38;102520.09;;;5.66;55.28
49979;BME280;35869;50.990;6.962;2023-02-28T16:44:39;102521.72;;;5.50;53.51
49979;BME280;35869;50.990;6.962;2023-02-28T16:49:40;102525.88;;;5.25;52.07
49979;BME280;35869;50.990;6.962;2023-02-28T16:54:41;102531.88;;;5.25;54.89
49979;BME280;35869;50.990;6.962;2023-02-28T16:59:41;102541.28;;;5.17;56.27
49979;BME280;35869;50.990;6.962;2023-02-28T17:04:41;102541.25;;;5.11;54.57
49979;BME280;35869;50.990;6.962;2023-02-28T17:09:43;102555.72;;;4.97;57.01
49979;BME280;35869;50.990;6.962;2023-02-28T17:14:43;102562.53;;;4.89;54.80
49979;BME280;35869;50.990;6.962;2023-02-28T17:19:43;102571.00;;;4.77;56.85
49979;BME280;35869;50.990;6.962;2023-02-28T17:24:43;102575.25;;;4.72;58.23
49979;BME280;35869;50.990;6.962;2023-02-28T17:29:43;102573.47;;;4.68;61.56
49979;BME280;35869;50.990;6.962;2023-02-28T17:34:44;102588.78;;;4.52;61.50
49979;BME280;35869;50.990;6.962;2023-02-28T17:39:44;102592.91;;;4.38;57.25
49979;BME280;35869;50.990;6.962;2023-02-28T17:44:45;102602.84;;;4.06;56.63
49979;BME280;35869;50.990;6.962;2023-02-28T17:49:45;102605.38;;;4.05;57.12
49979;BME280;35869;50.990;6.962;2023-02-28T17:54:45;102606.28;;;4.08;57.07
49979;BME280;35869;50.990;6.962;2023-02-28T17:59:45;102613.59;;;3.79;57.63
49979;BME280;35869;50.990;6.962;2023-02-28T18:04:45;102609.44;;;3.87;57.92
49979;BME280;35869;50.990;6.962;2023-02-28T18:09:46;102606.72;;;3.78;58.19
49979;BME280;35869;50.990;6.962;2023-02-28T18:14:46;102613.50;;;3.70;59.12
49979;BME280;35869;50.990;6.962;2023-02-28T18:19:46;102609.16;;;3.67;59.51
49979;BME280;35869;50.990;6.962;2023-02-28T18:24:46;102611.41;;;3.46;59.58
49979;BME280;35869;50.990;6.962;2023-02-28T18:29:47;102609.72;;;3.46;59.85
49979;BME280;35869;50.990;6.962;2023-02-28T18:34:47;102615.72;;;3.47;59.74
49979;BME280;35869;50.990;6.962;2023-02-28T18:39:47;102617.25;;;3.37;60.02
49979;BME280;35869;50.990;6.962;2023-02-28T18:44:48;102621.44;;;3.29;60.31
49979;BME280;35869;50.990;6.962;2023-02-28T18:49:48;102631.63;;;3.26;61.63
49979;BME280;35869;50.990;6.962;2023-02-28T18:54:48;102630.69;;;3.19;60.66
49979;BME280;35869;50.990;6.962;2023-02-28T18:59:48;102626.31;;;3.14;61.60
49979;BME280;35869;50.990;6.962;2023-02-28T19:04:48;102645.03;;;3.08;61.96
49979;BME280;35869;50.990;6.962;2023-02-28T19:09:49;102637.28;;;3.05;62.52
49979;BME280;35869;50.990;6.962;2023-02-28T19:14:50;102644.00;;;2.99;65.01
49979;BME280;35869;50.990;6.962;2023-02-28T19:19:50;102640.50;;;2.93;64.79
49979;BME280;35869;50.990;6.962;2023-02-28T19:24:51;102639.56;;;2.90;66.48
49979;BME280;35869;50.990;6.962;2023-02-28T19:29:51;102643.84;;;2.88;68.93
49979;BME280;35869;50.990;6.962;2023-02-28T19:34:51;102650.59;;;2.84;69.69
49979;BME280;35869;50.990;6.962;2023-02-28T19:39:52;102646.97;;;2.75;70.40
49979;BME280;35869;50.990;6.962;2023-02-28T19:44:52;102644.28;;;2.67;69.74
49979;BME280;35869;50.990;6.962;2023-02-28T19:49:52;102651.88;;;2.62;72.07
49979;BME280;35869;50.990;6.962;2023-02-28T19:54:52;102654.50;;;2.64;72.33
49979;BME280;35869;50.990;6.962;2023-02-28T19:59:52;102652.50;;;2.51;72.16
49979;BME280;35869;50.990;6.962;2023-02-28T20:05:29;102658.38;;;2.45;73.05
49979;BME280;35869;50.990;6.962;2023-02-28T20:10:35;102661.38;;;2.24;68.89
49979;BME280;35869;50.990;6.962;2023-02-28T20:15:49;102656.28;;;2.26;72.16
49979;BME280;35869;50.990;6.962;2023-02-28T20:21:11;102652.84;;;2.24;72.70
49979;BME280;35869;50.990;6.962;2023-02-28T20:26:15;102653.56;;;2.18;73.03
49979;BME280;35869;50.990;6.962;2023-02-28T20:31:18;102654.19;;;2.08;70.83
49979;BME280;35869;50.990;6.962;2023-02-28T20:36:19;102655.63;;;1.95;69.75
49979;BME280;35869;50.990;6.962;2023-02-28T20:41:20;102656.34;;;1.90;68.81
49979;BME280;35869;50.990;6.962;2023-02-28T20:46:23;102652.88;;;1.87;69.25
49979;BME280;35869;50.990;6.962;2023-02-28T20:51:23;102646.81;;;1.84;69.77
49979;BME280;35869;50.990;6.962;2023-02-28T20:56:23;102645.94;;;1.82;70.93
49979;BME280;35869;50.990;6.962;2023-02-28T21:01:27;102648.28;;;1.73;69.42
49979;BME280;35869;50.990;6.962;2023-02-28T21:06:30;102644.88;;;1.74;70.59
49979;BME280;35869;50.990;6.962;2023-02-28T21:11:33;102642.16;;;1.66;69.51
49979;BME280;35869;50.990;6.962;2023-02-28T21:16:34;102637.88;;;1.67;71.53
49979;BME280;35869;50.990;6.962;2023-02-28T21:21:40;102634.44;;;1.65;70.47
49979;BME280;35869;50.990;6.962;2023-02-28T21:26:42;102637.59;;;1.54;71.85
49979;BME280;35869;50.990;6.962;2023-02-28T21:31:42;102645.28;;;1.54;71.50
49979;BME280;35869;50.990;6.962;2023-02-28T21:36:43;102647.75;;;1.51;72.83
49979;BME280;35869;50.990;6.962;2023-02-28T21:41:44;102662.84;;;1.39;70.30
49979;BME280;35869;50.990;6.962;2023-02-28T21:46:46;102673.63;;;1.27;69.94
49979;BME280;35869;50.990;6.962;2023-02-28T21:51:47;102672.03;;;1.31;70.78
49979;BME280;35869;50.990;6.962;2023-02-28T21:56:47;102679.72;;;1.31;70.24
49979;BME280;35869;50.990;6.962;2023-02-28T22:01:49;102678.72;;;1.26;71.73
49979;BME280;35869;50.990;6.962;2023-02-28T22:06:54;102671.16;;;1.30;71.68
49979;BME280;35869;50.990;6.962;2023-02-28T22:11:55;102675.38;;;1.28;73.21
49979;BME280;35869;50.990;6.962;2023-02-28T22:16:56;102674.13;;;1.13;74.58
49979;BME280;35869;50.990;6.962;2023-02-28T22:21:56;102674.03;;;1.10;75.03
49979;BME280;35869;50.990;6.962;2023-02-28T22:26:56;102674.16;;;1.14;74.04
49979;BME280;35869;50.990;6.962;2023-02-28T22:31:56;102672.06;;;0.99;75.11
49979;BME280;35869;50.990;6.962;2023-02-28T22:36:57;102674.44;;;0.93;76.54
49979;BME280;35869;50.990;6.962;2023-02-28T22:41:57;102675.16;;;0.88;77.04
49979;BME280;35869;50.990;6.962;2023-02-28T22:46:58;102668.28;;;0.85;76.68
49979;BME280;35869;50.990;6.962;2023-02-28T22:51:58;102659.44;;;0.74;76.35
49979;BME280;35869;50.990;6.962;2023-02-28T22:56:58;102657.00;;;0.78;76.84
49979;BME280;35869;50.990;6.962;2023-02-28T23:01:58;102662.72;;;0.70;76.48
49979;BME280;35869;50.990;6.962;2023-02-28T23:06:59;102665.22;;;0.67;76.94
49979;BME280;35869;50.990;6.962;2023-02-28T23:11:59;102684.56;;;0.57;77.87
49979;BME280;35869;50.990;6.962;2023-02-28T23:16:59;102686.34;;;0.60;76.40
49979;BME280;35869;50.990;6.962;2023-02-28T23:22:01;102681.91;;;0.54;76.02
49979;BME280;35869;50.990;6.962;2023-02-28T23:27:03;102674.19;;;0.52;77.19
49979;BME280;35869;50.990;6.962;2023-02-28T23:32:04;102671.28;;;0.40;76.37
49979;BME280;35869;50.990;6.962;2023-02-28T23:37:04;102655.84;;;0.37;76.94
49979;BME280;35869;50.990;6.962;2023-02-28T23:42:04;102662.91;;;0.46;77.62
49979;BME280;35869;50.990;6.962;2023-02-28T23:47:05;102661.97;;;0.42;76.75
49979;BME280;35869;50.990;6.962;2023-02-28T23:52:05;102670.38;;;0.38;77.50
49979;BME280;35869;50.990;6.962;2023-02-28T23:57:05;102675.31;;;0.32;77.62
